sensor_id;sensor_type;location;lat;lon;timestamp;pressure;altitude;pressure_sealevel;temperature;humidity
64841;BME280;51307;52.162;7.560;2023-07-29T00:01:20;100226.78;;;21.15;68.29
64841;BME280;51307;52.162;7.560;2023-07-29T00:03:45;100229.09;;;21.24;67.89
64841;BME280;51307;52.162;7.560;2023-07-29T00:06:11;100220.09;;;21.06;68.62
64841;BME280;51307;52.162;7.560;2023-07-29T00:08:36;100214.34;;;21.20;68.25
64841;BME280;51307;52.162;7.560;2023-07-29T00:11:02;100222.50;;;21.20;68.29
64841;BME280;51307;52.162;7.560;2023-07-29T00:13:28;100213.28;;;21.21;67.99
64841;BME280;51307;52.162;7.560;2023-07-29T00:15:54;100211.97;;;21.23;67.91
64841;BME280;51307;52.162;7.560;2023-07-29T00:18:21;100197.97;;;21.31;67.22
64841;BME280;51307;52.162;7.560;2023-07-29T00:20:47;100211.47;;;21.09;68.35
64841;BME280;51307;52.162;7.560;2023-07-29T00:23:13;100208.25;;;21.12;67.80
64841;BME280;51307;52.162;7.560;2023-07-29T00:25:38;100208.50;;;21.11;67.61
64841;BME280;51307;52.162;7.560;2023-07-29T00:28:04;100204.13;;;20.81;68.56
64841;BME280;51307;52.162;7.560;2023-07-29T00:30:29;100190.69;;;21.03;67.68
64841;BME280;51307;52.162;7.560;2023-07-29T00:32:55;100192.69;;;21.08;67.42
64841;BME280;51307;52.162;7.560;2023-07-29T00:35:20;100189.03;;;21.02;67.63
64841;BME280;51307;52.162;7.560;2023-07-29T00:37:45;100189.13;;;21.07;67.21
64841;BME280;51307;52.162;7.560;2023-07-29T00:40:20;100200.09;;;21.12;66.96
64841;BME280;51307;52.162;7.560;2023-07-29T00:42:46;100192.34;;;21.04;67.36
64841;BME280;51307;52.162;7.560;2023-07-29T00:45:12;100187.88;;;20.98;67.33
64841;BME280;51307;52.162;7.560;2023-07-29T00:47:38;100184.41;;;20.74;68.43
64841;BME280;51307;52.162;7.560;2023-07-29T00:50:08;100188.34;;;20.95;67.72
64841;BME280;51307;52.162;7.560;2023-07-29T00:52:34;100185.16;;;20.98;67.68
64841;BME280;51307;52.162;7.560;2023-07-29T00:55:00;100182.63;;;20.79;68.15
64841;BME280;51307;52.162;7.560;2023-07-29T00:57:26;100189.91;;;20.91;67.76
64841;BME280;51307;52.162;7.560;2023-07-29T00:59:54;100183.69;;;20.78;68.21
64841;BME280;51307;52.162;7.560;2023-07-29T01:02:19;100189.22;;;20.84;67.95
64841;BME280;51307;52.162;7.560;2023-07-29T01:04:45;100196.31;;;20.85;68.17
64841;BME280;51307;52.162;7.560;2023-07-29T01:07:21;100191.25;;;20.76;68.28
64841;BME280;51307;52.162;7.560;2023-07-29T01:10:02;100192.69;;;20.67;68.70
64841;BME280;51307;52.162;7.560;2023-07-29T01:12:39;100196.97;;;20.63;68.84
64841;BME280;51307;52.162;7.560;2023-07-29T01:17:56;100181.50;;;20.63;68.81
64841;BME280;51307;52.162;7.560;2023-07-29T01:20:25;100182.47;;;20.57;68.88
64841;BME280;51307;52.162;7.560;2023-07-29T01:22:51;100178.28;;;20.67;68.59
64841;BME280;51307;52.162;7.560;2023-07-29T01:25:17;100170.66;;;20.80;68.22
64841;BME280;51307;52.162;7.560;2023-07-29T01:27:48;100159.16;;;20.61;68.68
64841;BME280;51307;52.162;7.560;2023-07-29T01:30:13;100154.31;;;20.63;69.06
64841;BME280;51307;52.162;7.560;2023-07-29T01:38:19;100164.84;;;20.60;69.03
64841;BME280;51307;52.162;7.560;2023-07-29T01:40:48;100172.41;;;20.58;69.12
64841;BME280;51307;52.162;7.560;2023-07-29T01:43:16;100176.31;;;20.62;69.23
64841;BME280;51307;52.162;7.560;2023-07-29T01:45:44;100174.31;;;20.05;71.42
64841;BME280;51307;52.162;7.560;2023-07-29T01:48:10;100176.63;;;20.37;70.07
64841;BME280;51307;52.162;7.560;2023-07-29T01:50:35;100177.28;;;20.03;71.69
64841;BME280;51307;52.162;7.560;2023-07-29T01:53:01;100182.34;;;20.23;70.60
64841;BME280;51307;52.162;7.560;2023-07-29T01:55:27;100189.91;;;19.97;72.13
64841;BME280;51307;52.162;7.560;2023-07-29T01:57:52;100180.56;;;20.05;71.96
64841;BME280;51307;52.162;7.560;2023-07-29T02:00:19;100182.19;;;20.30;71.17
64841;BME280;51307;52.162;7.560;2023-07-29T02:02:45;100180.16;;;20.37;70.53
64841;BME280;51307;52.162;7.560;2023-07-29T02:05:10;100170.03;;;20.33;70.68
64841;BME280;51307;52.162;7.560;2023-07-29T02:07:35;100175.84;;;20.24;71.15
64841;BME280;51307;52.162;7.560;2023-07-29T02:10:01;100161.16;;;20.37;70.60
64841;BME280;51307;52.162;7.560;2023-07-29T02:12:26;100157.47;;;20.43;70.53
64841;BME280;51307;52.162;7.560;2023-07-29T02:14:52;100158.03;;;20.17;71.50
64841;BME280;51307;52.162;7.560;2023-07-29T02:17:18;100146.78;;;20.25;71.15
64841;BME280;51307;52.162;7.560;2023-07-29T02:19:43;100150.53;;;20.36;70.86
64841;BME280;51307;52.162;7.560;2023-07-29T02:22:12;100148.72;;;20.41;70.40
64841;BME280;51307;52.162;7.560;2023-07-29T02:24:38;100147.94;;;20.29;71.08
64841;BME280;51307;52.162;7.560;2023-07-29T02:27:04;100130.84;;;20.28;70.97
64841;BME280;51307;52.162;7.560;2023-07-29T02:29:29;100125.47;;;20.34;70.85
64841;BME280;51307;52.162;7.560;2023-07-29T02:31:55;100121.56;;;20.41;70.55
64841;BME280;51307;52.162;7.560;2023-07-29T02:34:21;100124.91;;;20.31;70.96
64841;BME280;51307;52.162;7.560;2023-07-29T02:36:47;100128.97;;;20.05;71.96
64841;BME280;51307;52.162;7.560;2023-07-29T02:39:12;100120.78;;;20.29;71.15
64841;BME280;51307;52.162;7.560;2023-07-29T02:41:38;100121.00;;;20.39;70.78
64841;BME280;51307;52.162;7.560;2023-07-29T02:44:05;100116.22;;;20.18;71.18
64841;BME280;51307;52.162;7.560;2023-07-29T02:46:30;100118.84;;;20.41;70.78
64841;BME280;51307;52.162;7.560;2023-07-29T02:48:56;100125.81;;;20.37;70.49
64841;BME280;51307;52.162;7.560;2023-07-29T02:51:21;100125.28;;;20.23;71.41
64841;BME280;51307;52.162;7.560;2023-07-29T02:53:47;100120.69;;;20.12;71.68
64841;BME280;51307;52.162;7.560;2023-07-29T02:56:12;100129.41;;;20.26;70.84
64841;BME280;51307;52.162;7.560;2023-07-29T02:58:38;100120.94;;;20.10;71.63
64841;BME280;51307;52.162;7.560;2023-07-29T03:01:04;100120.56;;;20.19;71.15
64841;BME280;51307;52.162;7.560;2023-07-29T03:03:31;100113.28;;;20.07;71.86
64841;BME280;51307;52.162;7.560;2023-07-29T03:06:01;100122.59;;;19.99;72.23
64841;BME280;51307;52.162;7.560;2023-07-29T03:08:27;100117.41;;;20.10;72.08
64841;BME280;51307;52.162;7.560;2023-07-29T03:10:54;100111.50;;;20.13;71.55
64841;BME280;51307;52.162;7.560;2023-07-29T03:13:19;100124.13;;;20.19;71.57
64841;BME280;51307;52.162;7.560;2023-07-29T03:15:45;100135.13;;;20.12;71.66
64841;BME280;51307;52.162;7.560;2023-07-29T03:18:10;100133.22;;;20.01;72.63
64841;BME280;51307;52.162;7.560;2023-07-29T03:20:36;100135.13;;;20.01;72.53
64841;BME280;51307;52.162;7.560;2023-07-29T03:23:01;100146.44;;;20.09;72.34
64841;BME280;51307;52.162;7.560;2023-07-29T03:25:28;100141.84;;;19.98;72.72
64841;BME280;51307;52.162;7.560;2023-07-29T03:27:54;100149.41;;;19.96;72.65
64841;BME280;51307;52.162;7.560;2023-07-29T03:30:21;100145.84;;;19.95;72.71
64841;BME280;51307;52.162;7.560;2023-07-29T03:32:47;100144.22;;;20.06;72.32
64841;BME280;51307;52.162;7.560;2023-07-29T03:35:13;100139.25;;;19.91;72.92
64841;BME280;51307;52.162;7.560;2023-07-29T03:37:38;100147.53;;;20.08;72.08
64841;BME280;51307;52.162;7.560;2023-07-29T03:40:05;100143.97;;;20.08;72.31
64841;BME280;51307;52.162;7.560;2023-07-29T03:42:31;100146.38;;;20.04;72.40
64841;BME280;51307;52.162;7.560;2023-07-29T03:44:56;100132.97;;;20.14;72.09
64841;BME280;51307;52.162;7.560;2023-07-29T03:47:22;100138.56;;;19.96;72.74
64841;BME280;51307;52.162;7.560;2023-07-29T03:49:47;100133.13;;;19.96;73.03
64841;BME280;51307;52.162;7.560;2023-07-29T03:52:13;100136.66;;;20.20;71.99
64841;BME280;51307;52.162;7.560;2023-07-29T03:54:38;100136.44;;;19.86;73.11
64841;BME280;51307;52.162;7.560;2023-07-29T03:57:04;100131.72;;;19.81;73.63
64841;BME280;51307;52.162;7.560;2023-07-29T03:59:29;100144.81;;;19.96;73.05
64841;BME280;51307;52.162;7.560;2023-07-29T04:01:55;100134.31;;;20.00;72.73
64841;BME280;51307;52.162;7.560;2023-07-29T04:04:20;100125.44;;;19.81;73.55
64841;BME280;51307;52.162;7.560;2023-07-29T04:06:46;100119.44;;;19.91;73.20
64841;BME280;51307;52.162;7.560;2023-07-29T04:09:12;100113.09;;;19.73;73.82
64841;BME280;51307;52.162;7.560;2023-07-29T04:11:37;100110.81;;;19.82;73.46
64841;BME280;51307;52.162;7.560;2023-07-29T04:14:03;100112.25;;;19.85;73.51
64841;BME280;51307;52.162;7.560;2023-07-29T04:16:28;100108.84;;;19.77;73.88
64841;BME280;51307;52.162;7.560;2023-07-29T04:18:54;100106.44;;;19.81;74.03
64841;BME280;51307;52.162;7.560;2023-07-29T04:21:19;100100.81;;;19.83;73.85
64841;BME280;51307;52.162;7.560;2023-07-29T04:23:45;100096.19;;;19.95;73.19
64841;BME280;51307;52.162;7.560;2023-07-29T04:26:11;100109.50;;;20.08;73.02
64841;BME280;51307;52.162;7.560;2023-07-29T04:28:36;100118.94;;;20.18;72.29
64841;BME280;51307;52.162;7.560;2023-07-29T04:31:02;100105.50;;;19.99;72.86
64841;BME280;51307;52.162;7.560;2023-07-29T04:33:29;100108.78;;;20.13;72.47
64841;BME280;51307;52.162;7.560;2023-07-29T04:35:58;100109.69;;;20.19;72.45
64841;BME280;51307;52.162;7.560;2023-07-29T04:38:31;100110.31;;;20.21;72.31
64841;BME280;51307;52.162;7.560;2023-07-29T04:40:57;100115.25;;;20.24;72.10
64841;BME280;51307;52.162;7.560;2023-07-29T04:43:27;100119.13;;;20.28;72.16
64841;BME280;51307;52.162;7.560;2023-07-29T04:45:53;100110.78;;;20.18;72.36
64841;BME280;51307;52.162;7.560;2023-07-29T04:48:18;100108.88;;;20.18;72.65
64841;BME280;51307;52.162;7.560;2023-07-29T04:50:44;100114.09;;;20.08;72.95
64841;BME280;51307;52.162;7.560;2023-07-29T04:53:09;100115.06;;;19.90;74.14
64841;BME280;51307;52.162;7.560;2023-07-29T04:55:35;100106.94;;;19.90;74.31
64841;BME280;51307;52.162;7.560;2023-07-29T04:58:00;100105.88;;;19.91;74.31
64841;BME280;51307;52.162;7.560;2023-07-29T05:00:26;100098.66;;;19.96;74.25
64841;BME280;51307;52.162;7.560;2023-07-29T05:02:51;100092.63;;;19.94;74.39
64841;BME280;51307;52.162;7.560;2023-07-29T05:05:17;100096.66;;;20.04;74.23
64841;BME280;51307;52.162;7.560;2023-07-29T05:07:42;100090.50;;;20.08;73.96
64841;BME280;51307;52.162;7.560;2023-07-29T05:10:08;100096.25;;;20.12;73.96
64841;BME280;51307;52.162;7.560;2023-07-29T05:12:33;100102.28;;;20.02;74.36
64841;BME280;51307;52.162;7.560;2023-07-29T05:14:59;100105.50;;;19.99;74.58
64841;BME280;51307;52.162;7.560;2023-07-29T05:17:25;100096.75;;;19.97;74.53
64841;BME280;51307;52.162;7.560;2023-07-29T05:19:51;100105.25;;;20.12;74.22
64841;BME280;51307;52.162;7.560;2023-07-29T05:22:16;100104.66;;;20.10;74.18
64841;BME280;51307;52.162;7.560;2023-07-29T05:24:41;100104.88;;;20.21;73.96
64841;BME280;51307;52.162;7.560;2023-07-29T05:27:07;100113.44;;;20.29;73.14
64841;BME280;51307;52.162;7.560;2023-07-29T05:29:33;100113.53;;;19.94;74.62
64841;BME280;51307;52.162;7.560;2023-07-29T05:31:59;100121.28;;;20.26;73.43
64841;BME280;51307;52.162;7.560;2023-07-29T05:34:24;100122.34;;;20.25;73.51
64841;BME280;51307;52.162;7.560;2023-07-29T05:36:50;100125.69;;;20.03;74.27
64841;BME280;51307;52.162;7.560;2023-07-29T05:39:15;100131.59;;;20.00;74.43
64841;BME280;51307;52.162;7.560;2023-07-29T05:41:41;100127.94;;;20.06;74.02
64841;BME280;51307;52.162;7.560;2023-07-29T05:44:06;100124.50;;;20.11;74.33
64841;BME280;51307;52.162;7.560;2023-07-29T05:46:32;100110.09;;;20.10;74.30
64841;BME280;51307;52.162;7.560;2023-07-29T05:48:57;100113.69;;;20.28;73.42
64841;BME280;51307;52.162;7.560;2023-07-29T05:51:23;100113.13;;;20.26;73.35
64841;BME280;51307;52.162;7.560;2023-07-29T05:53:48;100092.34;;;20.20;73.84
64841;BME280;51307;52.162;7.560;2023-07-29T05:56:14;100096.22;;;20.24;73.64
64841;BME280;51307;52.162;7.560;2023-07-29T05:58:39;100097.41;;;20.28;73.71
64841;BME280;51307;52.162;7.560;2023-07-29T06:01:05;100098.66;;;20.37;73.31
64841;BME280;51307;52.162;7.560;2023-07-29T06:03:30;100104.97;;;20.55;72.63
64841;BME280;51307;52.162;7.560;2023-07-29T06:05:56;100097.44;;;20.45;72.23
64841;BME280;51307;52.162;7.560;2023-07-29T06:08:21;100104.69;;;20.39;72.73
64841;BME280;51307;52.162;7.560;2023-07-29T06:10:47;100104.09;;;20.08;73.82
64841;BME280;51307;52.162;7.560;2023-07-29T06:13:12;100111.25;;;20.14;73.51
64841;BME280;51307;52.162;7.560;2023-07-29T06:15:38;100113.16;;;20.02;74.50
64841;BME280;51307;52.162;7.560;2023-07-29T06:18:03;100129.31;;;20.21;73.24
64841;BME280;51307;52.162;7.560;2023-07-29T06:20:32;100133.09;;;20.20;73.50
64841;BME280;51307;52.162;7.560;2023-07-29T06:22:57;100145.88;;;19.84;74.94
64841;BME280;51307;52.162;7.560;2023-07-29T06:25:23;100142.22;;;19.90;74.73
64841;BME280;51307;52.162;7.560;2023-07-29T06:27:48;100140.53;;;20.01;74.10
64841;BME280;51307;52.162;7.560;2023-07-29T06:30:14;100149.41;;;19.96;74.20
64841;BME280;51307;52.162;7.560;2023-07-29T06:32:42;100146.84;;;19.77;75.10
64841;BME280;51307;52.162;7.560;2023-07-29T06:35:08;100148.81;;;19.82;74.74
64841;BME280;51307;52.162;7.560;2023-07-29T06:37:33;100148.25;;;19.68;73.21
64841;BME280;51307;52.162;7.560;2023-07-29T06:39:59;100150.47;;;19.95;73.39
64841;BME280;51307;52.162;7.560;2023-07-29T06:42:24;100153.09;;;19.66;74.80
64841;BME280;51307;52.162;7.560;2023-07-29T06:44:50;100152.97;;;19.85;74.17
64841;BME280;51307;52.162;7.560;2023-07-29T06:47:15;100156.16;;;19.93;72.58
64841;BME280;51307;52.162;7.560;2023-07-29T06:49:41;100146.59;;;19.67;71.35
64841;BME280;51307;52.162;7.560;2023-07-29T06:52:06;100150.13;;;19.79;70.80
64841;BME280;51307;52.162;7.560;2023-07-29T06:54:32;100154.72;;;19.91;71.25
64841;BME280;51307;52.162;7.560;2023-07-29T06:56:57;100160.38;;;20.01;68.75
64841;BME280;51307;52.162;7.560;2023-07-29T06:59:23;100169.25;;;19.96;67.35
64841;BME280;51307;52.162;7.560;2023-07-29T07:01:50;100182.22;;;19.94;64.49
64841;BME280;51307;52.162;7.560;2023-07-29T07:04:15;100189.22;;;19.78;64.42
64841;BME280;51307;52.162;7.560;2023-07-29T07:06:41;100189.75;;;19.33;65.45
64841;BME280;51307;52.162;7.560;2023-07-29T07:09:06;100184.94;;;19.59;64.11
64841;BME280;51307;52.162;7.560;2023-07-29T07:11:32;100199.81;;;19.56;62.36
64841;BME280;51307;52.162;7.560;2023-07-29T07:13:57;100191.56;;;19.75;61.32
64841;BME280;51307;52.162;7.560;2023-07-29T07:16:23;100202.59;;;19.38;61.98
64841;BME280;51307;52.162;7.560;2023-07-29T07:18:48;100209.41;;;19.28;61.65
64841;BME280;51307;52.162;7.560;2023-07-29T07:21:14;100208.28;;;19.48;61.32
64841;BME280;51307;52.162;7.560;2023-07-29T07:23:42;100205.72;;;19.53;61.20
64841;BME280;51307;52.162;7.560;2023-07-29T07:26:07;100199.75;;;19.21;61.62
64841;BME280;51307;52.162;7.560;2023-07-29T07:28:33;100195.22;;;19.45;61.52
64841;BME280;51307;52.162;7.560;2023-07-29T07:30:58;100213.81;;;19.41;61.87
64841;BME280;51307;52.162;7.560;2023-07-29T07:33:24;100206.78;;;19.64;60.32
64841;BME280;51307;52.162;7.560;2023-07-29T07:35:50;100208.19;;;19.55;60.42
64841;BME280;51307;52.162;7.560;2023-07-29T07:38:16;100204.66;;;19.54;60.74
64841;BME280;51307;52.162;7.560;2023-07-29T07:40:41;100204.31;;;19.62;59.84
64841;BME280;51307;52.162;7.560;2023-07-29T07:43:07;100196.72;;;19.53;59.34
64841;BME280;51307;52.162;7.560;2023-07-29T07:45:32;100196.47;;;19.30;59.79
64841;BME280;51307;52.162;7.560;2023-07-29T07:47:58;100196.63;;;19.71;58.98
64841;BME280;51307;52.162;7.560;2023-07-29T07:50:24;100201.56;;;19.74;58.25
64841;BME280;51307;52.162;7.560;2023-07-29T07:52:50;100208.47;;;19.23;59.41
64841;BME280;51307;52.162;7.560;2023-07-29T07:55:15;100206.41;;;19.37;59.35
64841;BME280;51307;52.162;7.560;2023-07-29T07:57:41;100211.72;;;19.13;59.79
64841;BME280;51307;52.162;7.560;2023-07-29T08:00:06;100209.66;;;19.27;59.83
64841;BME280;51307;52.162;7.560;2023-07-29T08:02:32;100199.69;;;19.09;60.27
64841;BME280;51307;52.162;7.560;2023-07-29T08:04:58;100202.69;;;19.19;60.28
64841;BME280;51307;52.162;7.560;2023-07-29T08:07:23;100197.81;;;19.52;60.01
64841;BME280;51307;52.162;7.560;2023-07-29T08:09:49;100193.19;;;19.52;59.55
64841;BME280;51307;52.162;7.560;2023-07-29T08:12:14;100202.38;;;19.39;59.55
64841;BME280;51307;52.162;7.560;2023-07-29T08:14:40;100206.88;;;19.81;59.16
64841;BME280;51307;52.162;7.560;2023-07-29T08:17:06;100204.16;;;19.45;59.50
64841;BME280;51307;52.162;7.560;2023-07-29T08:19:31;100192.84;;;19.37;60.38
64841;BME280;51307;52.162;7.560;2023-07-29T08:21:57;100196.41;;;19.61;59.93
64841;BME280;51307;52.162;7.560;2023-07-29T08:24:22;100205.47;;;19.67;59.61
64841;BME280;51307;52.162;7.560;2023-07-29T08:26:48;100193.19;;;19.88;59.19
64841;BME280;51307;52.162;7.560;2023-07-29T08:29:13;100200.63;;;19.92;59.40
64841;BME280;51307;52.162;7.560;2023-07-29T08:31:39;100188.38;;;19.90;59.23
64841;BME280;51307;52.162;7.560;2023-07-29T08:34:04;100192.63;;;19.86;58.85
64841;BME280;51307;52.162;7.560;2023-07-29T08:36:30;100191.91;;;20.26;58.92
64841;BME280;51307;52.162;7.560;2023-07-29T08:38:55;100186.22;;;20.15;58.49
64841;BME280;51307;52.162;7.560;2023-07-29T08:44:06;100188.19;;;20.32;57.99
64841;BME280;51307;52.162;7.560;2023-07-29T08:46:34;100197.88;;;20.40;57.21
64841;BME280;51307;52.162;7.560;2023-07-29T08:49:01;100190.22;;;20.01;57.34
64841;BME280;51307;52.162;7.560;2023-07-29T08:51:27;100197.25;;;20.49;57.13
64841;BME280;51307;52.162;7.560;2023-07-29T08:53:55;100197.81;;;19.99;58.00
64841;BME280;51307;52.162;7.560;2023-07-29T08:56:21;100194.25;;;20.22;57.86
64841;BME280;51307;52.162;7.560;2023-07-29T08:58:47;100186.97;;;20.11;57.90
64841;BME280;51307;52.162;7.560;2023-07-29T09:01:13;100188.44;;;20.30;57.33
64841;BME280;51307;52.162;7.560;2023-07-29T09:03:40;100180.69;;;20.51;56.88
64841;BME280;51307;52.162;7.560;2023-07-29T09:06:07;100189.59;;;20.75;56.98
64841;BME280;51307;52.162;7.560;2023-07-29T09:08:33;100181.09;;;20.43;56.66
64841;BME280;51307;52.162;7.560;2023-07-29T09:10:59;100187.03;;;20.28;56.58
64841;BME280;51307;52.162;7.560;2023-07-29T09:13:25;100187.50;;;20.37;56.40
64841;BME280;51307;52.162;7.560;2023-07-29T09:15:54;100186.16;;;20.80;56.11
64841;BME280;51307;52.162;7.560;2023-07-29T09:18:26;100199.75;;;20.80;55.97
64841;BME280;51307;52.162;7.560;2023-07-29T09:20:52;100193.69;;;20.61;56.59
64841;BME280;51307;52.162;7.560;2023-07-29T09:23:18;100190.94;;;20.73;55.31
64841;BME280;51307;52.162;7.560;2023-07-29T09:25:46;100192.00;;;20.31;55.60
64841;BME280;51307;52.162;7.560;2023-07-29T09:28:14;100196.97;;;20.63;55.27
64841;BME280;51307;52.162;7.560;2023-07-29T09:30:45;100203.56;;;20.67;55.23
64841;BME280;51307;52.162;7.560;2023-07-29T09:33:11;100192.41;;;20.80;54.64
64841;BME280;51307;52.162;7.560;2023-07-29T09:35:38;100175.97;;;20.87;55.08
64841;BME280;51307;52.162;7.560;2023-07-29T09:38:05;100180.44;;;20.93;54.63
64841;BME280;51307;52.162;7.560;2023-07-29T09:40:36;100186.00;;;20.98;54.98
64841;BME280;51307;52.162;7.560;2023-07-29T09:43:03;100179.91;;;21.08;54.73
64841;BME280;51307;52.162;7.560;2023-07-29T09:45:29;100175.09;;;21.15;54.97
64841;BME280;51307;52.162;7.560;2023-07-29T09:47:57;100181.00;;;20.95;54.15
64841;BME280;51307;52.162;7.560;2023-07-29T09:50:25;100177.66;;;21.22;54.48
64841;BME280;51307;52.162;7.560;2023-07-29T09:52:52;100176.19;;;21.31;53.33
64841;BME280;51307;52.162;7.560;2023-07-29T09:55:19;100175.13;;;21.32;53.74
64841;BME280;51307;52.162;7.560;2023-07-29T09:57:45;100177.44;;;21.41;53.65
64841;BME280;51307;52.162;7.560;2023-07-29T10:00:11;100175.53;;;21.58;52.98
64841;BME280;51307;52.162;7.560;2023-07-29T10:02:39;100183.69;;;21.41;52.57
64841;BME280;51307;52.162;7.560;2023-07-29T10:05:06;100178.75;;;21.38;52.81
64841;BME280;51307;52.162;7.560;2023-07-29T10:07:34;100194.78;;;21.35;53.07
64841;BME280;51307;52.162;7.560;2023-07-29T10:10:01;100188.91;;;21.43;52.50
64841;BME280;51307;52.162;7.560;2023-07-29T10:12:28;100196.97;;;21.38;51.84
64841;BME280;51307;52.162;7.560;2023-07-29T10:15:02;100189.50;;;21.28;52.59
64841;BME280;51307;52.162;7.560;2023-07-29T10:17:27;100196.63;;;21.00;52.80
64841;BME280;51307;52.162;7.560;2023-07-29T10:19:56;100198.34;;;21.06;52.97
64841;BME280;51307;52.162;7.560;2023-07-29T10:22:25;100191.69;;;20.97;53.35
64841;BME280;51307;52.162;7.560;2023-07-29T10:24:56;100199.53;;;21.10;53.64
64841;BME280;51307;52.162;7.560;2023-07-29T10:27:25;100202.25;;;21.10;53.56
64841;BME280;51307;52.162;7.560;2023-07-29T10:29:55;100203.16;;;21.16;53.61
64841;BME280;51307;52.162;7.560;2023-07-29T10:32:25;100202.06;;;21.17;53.13
64841;BME280;51307;52.162;7.560;2023-07-29T10:34:52;100204.72;;;21.29;53.05
64841;BME280;51307;52.162;7.560;2023-07-29T10:37:17;100202.59;;;21.31;53.63
64841;BME280;51307;52.162;7.560;2023-07-29T10:39:55;100198.78;;;21.49;53.53
64841;BME280;51307;52.162;7.560;2023-07-29T10:42:21;100199.53;;;21.44;53.07
64841;BME280;51307;52.162;7.560;2023-07-29T10:44:48;100208.19;;;21.24;53.66
64841;BME280;51307;52.162;7.560;2023-07-29T10:49:54;100207.44;;;21.46;52.80
64841;BME280;51307;52.162;7.560;2023-07-29T10:52:43;100201.03;;;21.52;53.20
64841;BME280;51307;52.162;7.560;2023-07-29T10:55:28;100196.81;;;21.44;53.58
64841;BME280;51307;52.162;7.560;2023-07-29T10:58:14;100188.06;;;21.42;53.28
64841;BME280;51307;52.162;7.560;2023-07-29T11:00:43;100184.88;;;21.45;53.63
64841;BME280;51307;52.162;7.560;2023-07-29T11:03:09;100191.94;;;21.46;54.09
64841;BME280;51307;52.162;7.560;2023-07-29T11:08:28;100183.13;;;21.73;54.17
64841;BME280;51307;52.162;7.560;2023-07-29T11:11:03;100180.47;;;21.78;54.27
64841;BME280;51307;52.162;7.560;2023-07-29T11:13:30;100183.03;;;21.85;54.46
64841;BME280;51307;52.162;7.560;2023-07-29T11:15:57;100176.53;;;21.69;54.40
64841;BME280;51307;52.162;7.560;2023-07-29T11:18:28;100187.56;;;21.62;54.72
64841;BME280;51307;52.162;7.560;2023-07-29T11:20:55;100185.78;;;21.68;54.57
64841;BME280;51307;52.162;7.560;2023-07-29T11:23:27;100191.47;;;21.84;55.18
64841;BME280;51307;52.162;7.560;2023-07-29T11:25:54;100183.63;;;21.70;53.94
64841;BME280;51307;52.162;7.560;2023-07-29T11:28:19;100195.75;;;21.79;53.58
64841;BME280;51307;52.162;7.560;2023-07-29T11:30:45;100175.69;;;21.86;53.47
64841;BME280;51307;52.162;7.560;2023-07-29T11:33:10;100175.31;;;21.99;52.78
64841;BME280;51307;52.162;7.560;2023-07-29T11:35:37;100185.16;;;21.83;52.31
64841;BME280;51307;52.162;7.560;2023-07-29T11:38:06;100178.28;;;21.97;52.66
64841;BME280;51307;52.162;7.560;2023-07-29T11:40:34;100185.78;;;22.07;53.03
64841;BME280;51307;52.162;7.560;2023-07-29T11:43:00;100184.53;;;22.37;52.76
64841;BME280;51307;52.162;7.560;2023-07-29T11:45:26;100181.69;;;22.05;51.92
64841;BME280;51307;52.162;7.560;2023-07-29T11:47:51;100186.00;;;22.01;50.96
64841;BME280;51307;52.162;7.560;2023-07-29T11:50:17;100192.97;;;21.96;50.66
64841;BME280;51307;52.162;7.560;2023-07-29T11:52:44;100182.56;;;22.10;51.01
64841;BME280;51307;52.162;7.560;2023-07-29T11:55:12;100179.38;;;21.96;51.16
64841;BME280;51307;52.162;7.560;2023-07-29T11:57:39;100179.13;;;21.98;51.25
64841;BME280;51307;52.162;7.560;2023-07-29T12:00:07;100174.94;;;22.12;51.68
64841;BME280;51307;52.162;7.560;2023-07-29T12:02:41;100182.75;;;22.04;51.47
64841;BME280;51307;52.162;7.560;2023-07-29T12:05:09;100190.66;;;22.05;51.38
64841;BME280;51307;52.162;7.560;2023-07-29T12:07:35;100194.59;;;21.75;51.59
64841;BME280;51307;52.162;7.560;2023-07-29T12:10:04;100183.13;;;22.12;51.95
64841;BME280;51307;52.162;7.560;2023-07-29T12:12:30;100179.47;;;22.24;52.01
64841;BME280;51307;52.162;7.560;2023-07-29T12:14:56;100178.59;;;22.18;51.24
64841;BME280;51307;52.162;7.560;2023-07-29T12:17:22;100169.13;;;22.26;52.09
64841;BME280;51307;52.162;7.560;2023-07-29T12:19:47;100172.38;;;22.45;51.84
64841;BME280;51307;52.162;7.560;2023-07-29T12:22:18;100172.81;;;22.14;51.43
64841;BME280;51307;52.162;7.560;2023-07-29T12:24:44;100178.03;;;21.99;52.46
64841;BME280;51307;52.162;7.560;2023-07-29T12:27:14;100181.06;;;21.80;52.77
64841;BME280;51307;52.162;7.560;2023-07-29T12:29:44;100169.06;;;22.21;51.88
64841;BME280;51307;52.162;7.560;2023-07-29T12:32:11;100178.13;;;22.26;52.32
64841;BME280;51307;52.162;7.560;2023-07-29T12:34:38;100167.50;;;22.25;52.32
64841;BME280;51307;52.162;7.560;2023-07-29T12:37:05;100185.09;;;22.17;52.90
64841;BME280;51307;52.162;7.560;2023-07-29T12:39:33;100179.56;;;22.34;52.92
64841;BME280;51307;52.162;7.560;2023-07-29T12:42:01;100187.75;;;22.12;52.83
64841;BME280;51307;52.162;7.560;2023-07-29T12:44:33;100190.72;;;21.71;53.38
64841;BME280;51307;52.162;7.560;2023-07-29T12:47:03;100190.03;;;21.98;52.61
64841;BME280;51307;52.162;7.560;2023-07-29T12:49:29;100189.00;;;21.82;52.65
64841;BME280;51307;52.162;7.560;2023-07-29T12:51:56;100203.34;;;21.77;54.52
64841;BME280;51307;52.162;7.560;2023-07-29T12:54:22;100192.00;;;21.86;54.33
64841;BME280;51307;52.162;7.560;2023-07-29T12:56:47;100184.06;;;22.01;53.74
64841;BME280;51307;52.162;7.560;2023-07-29T12:59:13;100187.25;;;21.76;54.26
64841;BME280;51307;52.162;7.560;2023-07-29T13:01:38;100177.88;;;22.28;53.52
64841;BME280;51307;52.162;7.560;2023-07-29T13:04:04;100179.44;;;22.02;53.99